createdAt,value
2018-11-04T00:01:28.242Z,9.00
2018-11-04T00:03:56.434Z,8.90
2018-11-04T00:06:24.552Z,8.80
2018-11-04T00:08:52.709Z,8.80
2018-11-04T00:11:20.853Z,8.90
2018-11-04T00:13:49.029Z,8.90
2018-11-04T00:16:17.147Z,8.90
2018-11-04T00:18:45.326Z,8.90
2018-11-04T00:21:13.428Z,9.00
2018-11-04T00:23:41.688Z,9.00
2018-11-04T00:26:09.802Z,9.00
2018-11-04T00:28:37.934Z,9.00
2018-11-04T00:31:06.121Z,9.00
2018-11-04T00:33:34.233Z,9.00
2018-11-04T00:36:02.353Z,9.00
2018-11-04T00:38:37.016Z,9.00
2018-11-04T00:41:05.844Z,9.00
2018-11-04T00:43:34.169Z,9.00
2018-11-04T00:46:02.273Z,9.00
2018-11-04T00:48:30.552Z,9.00
2018-11-04T00:50:58.657Z,8.90
2018-11-04T00:53:26.769Z,9.00
2018-11-04T00:55:55.709Z,8.90
2018-11-04T00:58:25.062Z,8.90
2018-11-04T01:00:53.528Z,8.90
2018-11-04T01:03:21.590Z,8.90
2018-11-04T01:05:49.688Z,8.90
2018-11-04T01:08:17.800Z,8.90
2018-11-04T01:10:46.039Z,8.90
2018-11-04T01:13:14.121Z,8.90
2018-11-04T01:15:42.293Z,9.00
2018-11-04T01:18:10.419Z,9.00
2018-11-04T01:20:38.558Z,9.00
2018-11-04T01:23:06.674Z,9.00
2018-11-04T01:25:34.811Z,8.90
2018-11-04T01:28:02.929Z,8.90
2018-11-04T01:30:31.173Z,8.90
2018-11-04T01:32:59.282Z,8.90
2018-11-04T01:35:27.419Z,8.90
2018-11-04T01:37:55.524Z,8.80
2018-11-04T01:40:23.698Z,8.90
2018-11-04T01:42:51.822Z,8.90
2018-11-04T01:45:20.010Z,8.90
2018-11-04T01:47:48.105Z,8.90
2018-11-04T01:50:16.194Z,8.90
2018-11-04T01:52:44.285Z,8.80
2018-11-04T01:55:12.874Z,8.80
2018-11-04T01:57:40.985Z,8.80
2018-11-04T02:00:12.270Z,8.70
2018-11-04T02:02:40.670Z,8.70
2018-11-04T02:05:09.586Z,8.80
2018-11-04T02:07:37.805Z,8.80
2018-11-04T02:10:07.193Z,8.80
2018-11-04T02:12:35.417Z,8.80
2018-11-04T02:15:03.561Z,8.80
2018-11-04T02:17:31.713Z,8.80
2018-11-04T02:19:59.889Z,8.80
2018-11-04T02:22:27.986Z,8.80
2018-11-04T02:24:56.181Z,8.80
2018-11-04T02:27:24.311Z,8.80
2018-11-04T02:29:52.389Z,8.80
2018-11-04T02:32:20.705Z,8.90
2018-11-04T02:34:49.049Z,8.90
2018-11-04T02:37:17.121Z,8.80
2018-11-04T02:39:45.435Z,8.80
2018-11-04T02:42:13.517Z,8.70
2018-11-04T02:44:41.575Z,8.70
2018-11-04T02:47:09.815Z,8.70
2018-11-04T02:49:37.902Z,8.70
2018-11-04T02:52:06.196Z,8.70
2018-11-04T02:54:34.376Z,8.70
2018-11-04T02:57:02.456Z,8.70
2018-11-04T02:59:30.525Z,8.80
2018-11-04T03:01:58.690Z,8.70
2018-11-04T03:04:26.756Z,8.70
2018-11-04T03:06:54.837Z,8.70
2018-11-04T03:09:23.098Z,8.70
2018-11-04T03:11:51.173Z,8.70
2018-11-04T03:14:19.244Z,8.70
2018-11-04T03:16:47.316Z,8.80
2018-11-04T03:19:15.697Z,8.80
2018-11-04T03:21:43.752Z,8.90
2018-11-04T03:24:12.027Z,8.80
2018-11-04T03:26:40.100Z,8.80
2018-11-04T03:29:08.170Z,8.80
2018-11-04T03:31:36.257Z,8.80
2018-11-04T03:34:04.702Z,8.70
2018-11-04T03:36:32.772Z,8.70
2018-11-04T03:39:00.842Z,8.80
2018-11-04T03:41:28.904Z,8.80
2018-11-04T03:43:56.960Z,8.70
2018-11-04T03:46:25.084Z,8.70
2018-11-04T03:48:53.145Z,8.80
2018-11-04T03:51:21.227Z,8.80
2018-11-04T03:53:49.326Z,8.80
2018-11-04T03:56:17.401Z,8.80
2018-11-04T03:58:45.495Z,8.80
2018-11-04T04:01:13.741Z,8.80
2018-11-04T04:03:41.797Z,8.80
2018-11-04T04:06:09.867Z,8.80
2018-11-04T04:08:37.909Z,8.90
2018-11-04T04:11:05.984Z,8.80
2018-11-04T04:13:34.061Z,8.80
2018-11-04T04:16:02.168Z,8.80
2018-11-04T04:18:30.309Z,8.80
2018-11-04T04:21:06.789Z,8.80
2018-11-04T04:23:34.884Z,8.80
2018-11-04T04:26:03.189Z,8.70
2018-11-04T04:28:31.447Z,8.70
2018-11-04T04:30:59.591Z,8.80
2018-11-04T04:33:27.681Z,8.80
2018-11-04T04:35:55.760Z,8.70
2018-11-04T04:38:24.300Z,8.70
2018-11-04T04:40:52.382Z,8.80
2018-11-04T04:43:20.444Z,8.80
2018-11-04T04:45:48.550Z,8.80
2018-11-04T04:48:16.596Z,8.70
2018-11-04T04:50:44.683Z,8.80
2018-11-04T04:53:12.773Z,8.80
2018-11-04T04:55:40.911Z,8.80
2018-11-04T04:58:09.005Z,8.80
2018-11-04T05:00:37.189Z,8.80
2018-11-04T05:03:05.413Z,8.80
2018-11-04T05:05:33.501Z,8.80
2018-11-04T05:08:01.690Z,8.80
2018-11-04T05:10:29.792Z,8.80
2018-11-04T05:12:57.985Z,8.80
2018-11-04T05:15:26.071Z,8.80
2018-11-04T05:17:54.129Z,8.80
2018-11-04T05:20:22.201Z,8.80
2018-11-04T05:22:50.345Z,8.70
2018-11-04T05:25:18.485Z,8.80
2018-11-04T05:27:46.670Z,8.80
2018-11-04T05:30:14.759Z,9.00
2018-11-04T05:32:42.830Z,9.00
2018-11-04T05:35:10.889Z,8.90
2018-11-04T05:37:39.061Z,8.90
2018-11-04T05:40:07.708Z,8.90
2018-11-04T05:42:35.918Z,8.80
2018-11-04T05:45:04.137Z,8.90
2018-11-04T05:47:32.229Z,8.90
2018-11-04T05:50:00.320Z,8.80
2018-11-04T05:52:28.521Z,8.80
2018-11-04T05:54:56.576Z,8.80
2018-11-04T05:57:24.686Z,8.80
2018-11-04T05:59:52.765Z,8.80
2018-11-04T06:02:20.888Z,8.80
2018-11-04T06:04:48.968Z,8.80
2018-11-04T06:07:17.102Z,8.90
2018-11-04T06:09:45.188Z,8.80
2018-11-04T06:12:13.273Z,8.80
2018-11-04T06:14:41.365Z,8.80
2018-11-04T06:17:09.433Z,8.90
2018-11-04T06:19:37.591Z,8.90
2018-11-04T06:22:05.766Z,8.90
2018-11-04T06:24:33.872Z,8.90
2018-11-04T06:27:01.932Z,8.90
2018-11-04T06:29:30.029Z,8.90
2018-11-04T06:31:58.069Z,8.90
2018-11-04T06:34:26.328Z,8.90
2018-11-04T06:36:54.362Z,8.90
2018-11-04T06:39:22.477Z,8.90
2018-11-04T06:41:50.554Z,8.90
2018-11-04T06:44:18.633Z,8.90
2018-11-04T06:46:46.741Z,8.90
2018-11-04T06:49:14.848Z,9.00
2018-11-04T06:51:42.909Z,9.00
2018-11-04T06:54:11.133Z,9.00
2018-11-04T06:56:39.215Z,9.00
2018-11-04T06:59:08.322Z,9.00
2018-11-04T07:01:36.421Z,9.00
2018-11-04T07:04:19.669Z,9.00
2018-11-04T07:06:48.133Z,9.00
2018-11-04T07:09:16.622Z,9.00
2018-11-04T07:11:45.529Z,9.00
2018-11-04T07:14:13.682Z,9.00
2018-11-04T07:16:42.074Z,9.00
2018-11-04T07:19:10.229Z,9.00
2018-11-04T07:21:38.385Z,9.10
2018-11-04T07:24:06.793Z,9.20
2018-11-04T07:26:35.581Z,9.20
2018-11-04T07:29:03.734Z,9.30
2018-11-04T07:31:31.800Z,9.30
2018-11-04T07:33:59.945Z,9.30
2018-11-04T07:36:28.010Z,9.30
2018-11-04T07:38:56.251Z,9.30
2018-11-04T07:41:24.333Z,9.30
2018-11-04T07:43:52.405Z,9.40
2018-11-04T07:46:20.646Z,9.40
2018-11-04T07:48:49.019Z,9.40
2018-11-04T07:51:17.554Z,9.40
2018-11-04T07:53:46.235Z,9.40
2018-11-04T07:56:15.011Z,9.50
2018-11-04T07:58:43.115Z,9.50
2018-11-04T08:01:11.235Z,9.70
2018-11-04T08:03:39.289Z,9.70
2018-11-04T08:06:07.394Z,9.80
2018-11-04T08:08:35.523Z,9.80
2018-11-04T08:11:03.594Z,9.80
2018-11-04T08:13:31.753Z,9.80
2018-11-04T08:17:12.034Z,9.90
2018-11-04T08:19:40.134Z,10.00
2018-11-04T08:22:08.221Z,10.00
2018-11-04T08:24:36.382Z,10.00
2018-11-04T08:27:04.547Z,10.00
2018-11-04T08:29:32.941Z,10.00
2018-11-04T08:32:01.122Z,10.10
2018-11-04T08:34:29.249Z,10.10
2018-11-04T08:36:57.348Z,10.10
2018-11-04T08:39:25.579Z,10.10
2018-11-04T08:41:53.683Z,10.20
2018-11-04T08:44:21.874Z,10.20
2018-11-04T08:46:49.961Z,10.30
2018-11-04T08:49:18.053Z,10.30
2018-11-04T08:51:46.220Z,10.30
2018-11-04T08:54:14.771Z,10.50
2018-11-04T08:56:42.854Z,10.50
2018-11-04T08:59:11.181Z,10.50
2018-11-04T09:01:39.291Z,10.60
2018-11-04T09:04:07.369Z,10.60
2018-11-04T09:06:35.535Z,10.60
2018-11-04T09:09:04.823Z,10.70
2018-11-04T09:11:32.993Z,10.70
2018-11-04T09:14:01.215Z,10.70
2018-11-04T09:16:29.393Z,10.80
2018-11-04T09:18:57.544Z,10.80
2018-11-04T09:21:25.728Z,10.80
2018-11-04T09:23:53.810Z,10.80
2018-11-04T09:26:21.929Z,10.80
2018-11-04T09:28:50.062Z,10.80
2018-11-04T09:31:18.242Z,10.90
2018-11-04T09:33:46.335Z,10.90
2018-11-04T09:36:14.687Z,11.00
2018-11-04T09:38:42.641Z,11.00
2018-11-04T09:41:10.788Z,11.00
2018-11-04T09:43:38.970Z,11.00
2018-11-04T09:46:07.164Z,11.10
2018-11-04T09:48:35.344Z,11.10
2018-11-04T09:51:03.631Z,11.10
2018-11-04T09:53:31.785Z,11.10
2018-11-04T09:56:00.089Z,11.20
2018-11-04T09:58:28.194Z,11.20
2018-11-04T10:00:56.341Z,11.20
2018-11-04T10:03:24.583Z,11.30
2018-11-04T10:05:52.853Z,11.30
2018-11-04T10:08:20.958Z,11.30
2018-11-04T10:10:49.053Z,11.30
2018-11-04T10:13:17.159Z,11.40
2018-11-04T10:15:45.216Z,11.50
2018-11-04T10:18:13.300Z,11.50
2018-11-04T10:20:41.756Z,11.50
2018-11-04T10:23:09.462Z,11.50
2018-11-04T10:25:38.719Z,11.50
2018-11-04T10:28:06.841Z,11.70
2018-11-04T10:30:34.925Z,11.70
2018-11-04T10:33:03.091Z,11.80
2018-11-04T10:35:31.163Z,11.80
2018-11-04T10:37:59.380Z,11.80
2018-11-04T10:40:27.477Z,11.80
2018-11-04T10:42:55.586Z,11.90
2018-11-04T10:45:23.665Z,11.90
2018-11-04T10:47:52.503Z,11.90
2018-11-04T10:50:20.671Z,11.90
2018-11-04T10:52:48.750Z,12.00
2018-11-04T10:55:16.847Z,12.00
2018-11-04T10:57:44.900Z,12.00
2018-11-04T11:00:18.497Z,12.00
2018-11-04T11:02:46.665Z,12.00
2018-11-04T11:05:14.917Z,12.00
2018-11-04T11:07:43.016Z,12.10
2018-11-04T11:10:11.493Z,12.10
2018-11-04T11:12:39.854Z,12.10
2018-11-04T11:15:08.962Z,12.20
2018-11-04T11:17:37.233Z,12.20
2018-11-04T11:20:06.887Z,12.20
2018-11-04T11:22:35.015Z,12.30
2018-11-04T11:25:03.142Z,12.30
2018-11-04T11:27:31.206Z,12.40
2018-11-04T11:29:59.391Z,12.40
2018-11-04T11:32:27.434Z,12.30
2018-11-04T11:34:55.524Z,12.30
2018-11-04T11:37:24.715Z,12.40
2018-11-04T11:39:52.820Z,12.40
2018-11-04T11:42:20.989Z,12.50
2018-11-04T11:44:49.188Z,12.60
2018-11-04T11:47:17.231Z,12.60
2018-11-04T11:49:45.320Z,12.60
2018-11-04T11:52:13.398Z,12.60
2018-11-04T11:54:41.593Z,12.60
2018-11-04T11:58:00.476Z,12.70
2018-11-04T12:00:28.565Z,12.60
2018-11-04T12:02:56.740Z,12.60
2018-11-04T12:05:24.820Z,12.60
2018-11-04T12:07:53.049Z,12.60
2018-11-04T12:10:21.182Z,12.50
2018-11-04T12:12:49.363Z,12.50
2018-11-04T12:15:17.462Z,12.60
2018-11-04T12:17:45.584Z,12.60
2018-11-04T12:20:14.051Z,12.50
2018-11-04T12:22:42.175Z,12.40
2018-11-04T12:25:11.445Z,12.50
2018-11-04T12:27:39.666Z,12.50
2018-11-04T12:30:09.641Z,12.60
2018-11-04T12:32:37.866Z,12.60
2018-11-04T12:35:06.604Z,12.60
2018-11-04T12:37:34.634Z,12.60
2018-11-04T12:40:02.713Z,12.60
2018-11-04T12:42:30.868Z,12.70
2018-11-04T12:44:58.997Z,12.70
2018-11-04T12:47:27.197Z,12.70
2018-11-04T12:49:55.288Z,12.70
2018-11-04T12:52:23.529Z,12.70
2018-11-04T12:54:51.590Z,12.70
2018-11-04T12:57:19.692Z,12.70
2018-11-04T12:59:47.793Z,12.70
2018-11-04T13:02:16.022Z,12.60
2018-11-04T13:04:44.117Z,12.60
2018-11-04T13:07:12.255Z,12.60
2018-11-04T13:09:40.474Z,12.70
2018-11-04T13:12:08.622Z,12.70
2018-11-04T13:14:36.726Z,12.70
2018-11-04T13:17:04.822Z,12.80
2018-11-04T13:19:32.909Z,12.70
2018-11-04T13:22:01.022Z,12.70
2018-11-04T13:24:29.119Z,12.70
2018-11-04T13:26:57.806Z,12.70
2018-11-04T13:29:25.819Z,12.60
2018-11-04T13:31:54.049Z,12.60
2018-11-04T13:34:23.066Z,12.60
2018-11-04T13:36:51.176Z,12.60
2018-11-04T13:39:19.280Z,12.60
2018-11-04T13:41:47.438Z,12.60
2018-11-04T13:44:16.653Z,12.50
2018-11-04T13:46:45.080Z,12.50
2018-11-04T13:49:13.276Z,12.50
2018-11-04T13:51:41.381Z,12.50
2018-11-04T13:54:09.628Z,12.40
2018-11-04T13:56:37.861Z,12.40
2018-11-04T13:59:06.130Z,12.40
2018-11-04T14:01:34.299Z,12.40
2018-11-04T14:04:02.460Z,12.40
2018-11-04T14:06:30.663Z,12.40
2018-11-04T14:08:58.994Z,12.40
2018-11-04T14:11:27.117Z,12.40
2018-11-04T14:13:56.316Z,12.40
2018-11-04T14:16:24.440Z,12.40
2018-11-04T14:18:52.650Z,12.40
2018-11-04T14:21:20.837Z,12.40
2018-11-04T14:23:49.022Z,12.40
2018-11-04T14:26:17.013Z,12.40
2018-11-04T14:28:45.294Z,12.50
2018-11-04T14:31:13.672Z,12.50
2018-11-04T14:33:42.787Z,12.50
2018-11-04T14:36:11.150Z,12.50
2018-11-04T14:38:39.356Z,12.60
2018-11-04T14:41:07.695Z,12.50
2018-11-04T14:43:35.812Z,12.50
2018-11-04T14:46:03.930Z,12.50
2018-11-04T14:48:32.038Z,12.50
2018-11-04T14:51:00.238Z,12.40
2018-11-04T14:53:28.365Z,12.30
2018-11-04T14:55:56.641Z,12.30
2018-11-04T14:58:24.761Z,12.40
2018-11-04T15:00:52.997Z,12.40
2018-11-04T15:03:21.112Z,12.40
2018-11-04T15:05:49.184Z,12.30
2018-11-04T15:08:17.348Z,12.30
2018-11-04T15:10:45.446Z,12.30
2018-11-04T15:13:13.617Z,12.30
2018-11-04T15:15:41.777Z,12.30
2018-11-04T15:18:09.990Z,12.30
2018-11-04T15:20:38.197Z,12.30
2018-11-04T15:23:06.349Z,12.30
2018-11-04T15:25:34.441Z,12.30
2018-11-04T15:28:02.634Z,12.20
2018-11-04T15:30:30.770Z,12.30
2018-11-04T15:32:58.964Z,12.20
2018-11-04T15:35:27.097Z,12.20
2018-11-04T15:37:55.244Z,12.20
2018-11-04T15:40:23.449Z,12.20
2018-11-04T15:42:51.522Z,12.20
2018-11-04T15:45:19.604Z,12.20
2018-11-04T15:47:47.782Z,12.10
2018-11-04T15:50:17.256Z,12.10
2018-11-04T15:52:45.628Z,12.10
2018-11-04T15:55:13.774Z,12.10
2018-11-04T15:57:41.850Z,12.10
2018-11-04T16:00:11.455Z,12.10
2018-11-04T16:02:39.555Z,12.00
2018-11-04T16:05:08.683Z,12.10
2018-11-04T16:07:36.856Z,12.10
2018-11-04T16:10:06.388Z,12.00
2018-11-04T16:12:34.701Z,12.00
2018-11-04T16:15:02.858Z,11.90
2018-11-04T16:17:30.907Z,12.00
2018-11-04T16:19:58.968Z,12.00
2018-11-04T16:22:27.179Z,12.00
2018-11-04T16:24:55.385Z,11.90
2018-11-04T16:27:23.557Z,12.00
2018-11-04T16:29:51.719Z,12.00
2018-11-04T16:32:19.952Z,12.00
2018-11-04T16:34:48.354Z,11.90
2018-11-04T16:37:16.434Z,11.90
2018-11-04T16:39:44.617Z,11.90
2018-11-04T16:42:12.877Z,11.90
2018-11-04T16:44:41.100Z,11.90
2018-11-04T16:47:09.285Z,11.80
2018-11-04T16:49:37.421Z,11.80
2018-11-04T16:52:05.800Z,11.80
2018-11-04T16:54:33.989Z,11.80
2018-11-04T16:57:02.078Z,11.80
2018-11-04T16:59:30.184Z,11.80
2018-11-04T17:01:58.272Z,11.80
2018-11-04T17:04:26.670Z,11.80
2018-11-04T17:06:55.662Z,11.80
2018-11-04T17:09:23.833Z,11.90
2018-11-04T17:11:51.996Z,11.90
2018-11-04T17:14:20.078Z,11.80
2018-11-04T17:16:48.262Z,11.80
2018-11-04T17:19:16.449Z,11.80
2018-11-04T17:21:44.567Z,11.70
2018-11-04T17:24:12.713Z,11.80
2018-11-04T17:26:40.850Z,11.70
2018-11-04T17:29:09.129Z,11.70
2018-11-04T17:31:37.255Z,11.80
2018-11-04T17:34:05.806Z,11.70
2018-11-04T17:36:34.079Z,11.70
2018-11-04T17:39:02.149Z,11.80
2018-11-04T17:41:30.313Z,11.80
2018-11-04T17:43:59.401Z,11.80
2018-11-04T17:46:27.625Z,11.80
2018-11-04T17:48:55.738Z,11.80
2018-11-04T17:51:23.921Z,11.70
2018-11-04T17:53:52.236Z,11.70
2018-11-04T17:56:20.540Z,11.70
2018-11-04T17:58:48.617Z,11.70
2018-11-04T18:01:16.725Z,11.70
2018-11-04T18:03:44.841Z,11.70
2018-11-04T18:06:13.024Z,11.80
2018-11-04T18:08:41.099Z,11.80
2018-11-04T18:11:09.262Z,11.80
2018-11-04T18:13:37.356Z,11.80
2018-11-04T18:16:05.425Z,11.80
2018-11-04T18:18:33.548Z,11.80
2018-11-04T18:21:01.731Z,11.80
2018-11-04T18:23:29.813Z,11.80
2018-11-04T18:25:57.893Z,11.80
2018-11-04T18:28:26.013Z,11.80
2018-11-04T18:30:54.246Z,11.80
2018-11-04T18:33:22.365Z,11.80
2018-11-04T18:35:50.582Z,11.80
2018-11-04T18:38:18.857Z,11.80
2018-11-04T18:40:47.009Z,11.70
2018-11-04T18:43:15.207Z,11.80
2018-11-04T18:45:43.359Z,11.80
2018-11-04T18:48:11.538Z,11.80
2018-11-04T18:50:39.942Z,11.70
2018-11-04T18:53:08.004Z,11.70
2018-11-04T18:55:36.245Z,11.70
2018-11-04T18:58:04.361Z,11.70
2018-11-04T19:00:32.460Z,11.70
2018-11-04T19:03:00.742Z,11.70
2018-11-04T19:05:29.004Z,11.70
2018-11-04T19:07:57.121Z,11.80
2018-11-04T19:10:25.176Z,11.70
2018-11-04T19:12:53.263Z,11.70
2018-11-04T19:15:21.444Z,11.70
2018-11-04T19:17:49.556Z,11.70
2018-11-04T19:20:17.640Z,11.70
2018-11-04T19:24:10.995Z,11.70
2018-11-04T19:26:39.082Z,11.70
2018-11-04T19:29:07.199Z,11.70
2018-11-04T19:31:35.457Z,11.70
2018-11-04T19:34:03.749Z,11.70
2018-11-04T19:36:31.969Z,11.70
2018-11-04T19:39:00.126Z,11.80
2018-11-04T19:41:28.217Z,11.70
2018-11-04T19:43:56.308Z,11.70
2018-11-04T19:46:24.433Z,11.70
2018-11-04T19:48:52.696Z,11.60
2018-11-04T19:51:20.670Z,11.60
2018-11-04T19:53:48.874Z,11.60
2018-11-04T19:56:16.965Z,11.60
2018-11-04T19:58:45.127Z,11.60
2018-11-04T20:01:13.241Z,11.60
2018-11-04T20:03:41.380Z,11.60
2018-11-04T20:06:09.643Z,11.60
2018-11-04T20:08:41.885Z,11.60
2018-11-04T20:11:10.110Z,11.60
2018-11-04T20:13:44.560Z,11.60
2018-11-04T20:16:12.696Z,11.60
2018-11-04T20:18:46.274Z,11.60
2018-11-04T20:21:14.653Z,11.60
2018-11-04T20:23:42.945Z,11.60
2018-11-04T20:26:13.829Z,11.50
2018-11-04T20:28:41.956Z,11.50
2018-11-04T20:31:14.289Z,11.50
2018-11-04T20:33:42.402Z,11.50
2018-11-04T20:36:10.498Z,11.50
2018-11-04T20:38:44.198Z,11.50
2018-11-04T20:41:17.810Z,11.50
2018-11-04T20:43:45.882Z,11.50
2018-11-04T20:46:14.000Z,11.50
2018-11-04T20:48:47.748Z,11.50
2018-11-04T20:51:15.895Z,11.50
2018-11-04T20:53:43.994Z,11.50
2018-11-04T20:56:17.742Z,11.50
2018-11-04T20:58:45.854Z,11.40
2018-11-04T21:01:14.092Z,11.40
2018-11-04T21:03:42.274Z,11.40
2018-11-04T21:06:10.368Z,11.30
2018-11-04T21:08:38.569Z,11.30
2018-11-04T21:11:06.588Z,11.30
2018-11-04T21:13:34.816Z,11.30
2018-11-04T21:16:02.981Z,11.30
2018-11-04T21:18:31.058Z,11.30
2018-11-04T21:20:59.300Z,11.30
2018-11-04T21:23:27.642Z,11.30
2018-11-04T21:25:55.778Z,11.30
2018-11-04T21:28:23.942Z,11.40
2018-11-04T21:30:52.085Z,11.30
2018-11-04T21:33:20.162Z,11.30
2018-11-04T21:35:48.236Z,11.30
2018-11-04T21:38:16.469Z,11.30
2018-11-04T21:40:44.567Z,11.30
2018-11-04T21:43:13.006Z,11.30
2018-11-04T21:45:40.905Z,11.30
2018-11-04T21:48:08.993Z,11.30
2018-11-04T21:50:37.074Z,11.30
2018-11-04T21:53:05.392Z,11.30
2018-11-04T21:55:33.669Z,11.30
2018-11-04T21:58:01.580Z,11.30
2018-11-04T22:00:29.653Z,11.30
2018-11-04T22:02:57.916Z,11.30
2018-11-04T22:05:25.805Z,11.30
2018-11-04T22:07:54.009Z,11.30
2018-11-04T22:10:22.115Z,11.30
2018-11-04T22:12:50.195Z,11.30
2018-11-04T22:15:18.289Z,11.30
2018-11-04T22:17:46.546Z,11.30
2018-11-04T22:20:14.641Z,11.30
2018-11-04T22:22:42.731Z,11.20
2018-11-04T22:25:11.413Z,11.30
2018-11-04T22:27:39.489Z,11.30
2018-11-04T22:30:08.727Z,11.30
2018-11-04T22:32:37.106Z,11.30
2018-11-04T22:35:05.938Z,11.30
2018-11-04T22:37:34.030Z,11.40
2018-11-04T22:40:02.180Z,11.40
2018-11-04T22:42:30.284Z,11.30
2018-11-04T22:44:58.386Z,11.30
2018-11-04T22:47:26.493Z,11.30
2018-11-04T22:49:54.640Z,11.20
2018-11-04T22:52:22.737Z,11.20
2018-11-04T22:54:50.847Z,11.20
2018-11-04T22:57:18.939Z,11.20
2018-11-04T22:59:47.012Z,11.20
2018-11-04T23:02:15.092Z,11.20
2018-11-04T23:04:48.649Z,11.20
2018-11-04T23:07:16.718Z,11.20
2018-11-04T23:09:44.871Z,11.30
2018-11-04T23:12:12.982Z,11.30
2018-11-04T23:14:41.242Z,11.20
2018-11-04T23:17:09.329Z,11.20
2018-11-04T23:19:37.589Z,11.20
2018-11-04T23:22:05.782Z,11.20
2018-11-04T23:24:33.899Z,11.20
2018-11-04T23:27:02.040Z,11.20
2018-11-04T23:29:30.101Z,11.20
2018-11-04T23:31:58.241Z,11.20
2018-11-04T23:34:26.380Z,11.20
2018-11-04T23:36:54.448Z,11.20
2018-11-04T23:39:22.524Z,11.10
2018-11-04T23:41:50.781Z,11.20
2018-11-04T23:44:18.949Z,11.20
2018-11-04T23:46:47.048Z,11.20
2018-11-04T23:49:15.189Z,11.10
2018-11-04T23:51:43.362Z,11.10
2018-11-04T23:54:12.096Z,11.10
2018-11-04T23:56:40.252Z,11.10
2018-11-04T23:59:08.338Z,11.10
